Terminal Aerodrome Forecast
Issued by NWS Cleveland, OH

Home | Current Version | Previous Version | Text Only | Print | Product List | Glossary Off
Versions: 1 2 3 4 5 6 7 8 9 10 11 12 13 14 15 16 17 18 19

000
FTUS41 KCLE 281400 AAA
TAFTOL
TAF AMD
KTOL 281458Z 2815/2912 33015KT P6SM BKN035
      TEMPO 2815/2819 BKN030
     FM290100 31004KT P6SM SCT040
     FM290500 27005KT P6SM BKN080=

USA.gov is the U.S. government's official web portal to all federal, state and local government web resources and services.